createdAt,value
2018-05-24T00:01:09.656Z,20.70
2018-05-24T00:03:38.673Z,20.64
2018-05-24T00:06:07.231Z,20.64
2018-05-24T00:08:35.975Z,20.61
2018-05-24T00:11:04.536Z,20.62
2018-05-24T00:13:33.144Z,20.59
2018-05-24T00:18:41.035Z,20.52
2018-05-24T00:21:09.612Z,20.52
2018-05-24T00:23:38.151Z,20.46
2018-05-24T00:26:06.690Z,20.46
2018-05-24T00:28:35.542Z,20.46
2018-05-24T00:31:12.829Z,20.39
2018-05-24T00:33:41.535Z,20.39
2018-05-24T00:36:15.405Z,20.39
2018-05-24T00:38:44.094Z,20.36
2018-05-24T00:41:12.707Z,20.35
2018-05-24T00:43:41.548Z,20.36
2018-05-24T00:46:10.099Z,20.32
2018-05-24T00:48:38.649Z,20.31
2018-05-24T00:51:07.677Z,20.27
2018-05-24T00:53:36.199Z,20.26
2018-05-24T00:56:06.513Z,20.25
2018-05-24T00:58:35.340Z,20.26
2018-05-24T01:01:09.535Z,20.26
2018-05-24T01:03:38.079Z,20.22
2018-05-24T01:06:08.320Z,20.22
2018-05-24T01:08:36.868Z,20.20
2018-05-24T01:11:06.654Z,20.21
2018-05-24T01:13:35.587Z,20.18
2018-05-24T01:16:08.372Z,20.18
2018-05-24T01:18:36.915Z,20.16
2018-05-24T01:21:05.823Z,20.17
2018-05-24T01:23:34.820Z,20.14
2018-05-24T01:26:04.456Z,20.13
2018-05-24T01:28:33.007Z,20.12
2018-05-24T01:31:02.201Z,20.10
2018-05-24T01:33:31.172Z,20.01
2018-05-24T01:36:00.831Z,19.99
2018-05-24T01:38:29.408Z,19.94
2018-05-24T01:43:31.872Z,19.91
2018-05-24T01:46:00.401Z,19.87
2018-05-24T01:48:29.056Z,19.84
2018-05-24T01:51:04.244Z,19.86
2018-05-24T01:53:32.898Z,19.86
2018-05-24T01:56:12.112Z,19.87
2018-05-24T01:58:40.662Z,19.83
2018-05-24T02:01:14.550Z,19.84
2018-05-24T02:03:43.533Z,19.84
2018-05-24T02:06:12.140Z,19.82
2018-05-24T02:11:15.052Z,19.80
2018-05-24T02:13:43.676Z,19.78
2018-05-24T02:16:12.178Z,19.76
2018-05-24T02:18:41.135Z,19.75
2018-05-24T02:21:09.726Z,19.73
2018-05-24T02:23:38.549Z,19.69
2018-05-24T02:26:07.442Z,19.65
2018-05-24T02:28:35.975Z,19.64
2018-05-24T02:31:04.868Z,19.63
2018-05-24T02:33:33.824Z,19.63
2018-05-24T02:36:03.432Z,19.62
2018-05-24T02:38:32.088Z,19.59
2018-05-24T02:41:00.632Z,19.59
2018-05-24T02:43:29.583Z,19.58
2018-05-24T02:46:03.835Z,19.56
2018-05-24T02:51:06.127Z,19.54
2018-05-24T02:53:39.668Z,19.53
2018-05-24T02:56:08.224Z,19.52
2018-05-24T02:58:39.631Z,19.50
2018-05-24T03:01:08.573Z,19.46
2018-05-24T03:03:37.577Z,19.44
2018-05-24T03:06:06.130Z,19.42
2018-05-24T03:08:37.924Z,19.39
2018-05-24T03:11:06.503Z,19.35
2018-05-24T03:13:35.355Z,19.35
2018-05-24T03:16:16.756Z,19.34
2018-05-24T03:18:45.631Z,19.33
2018-05-24T03:21:14.561Z,19.31
2018-05-24T03:23:43.311Z,19.29
2018-05-24T03:26:11.849Z,19.27
2018-05-24T03:28:41.075Z,19.26
2018-05-24T03:31:09.613Z,19.26
2018-05-24T03:33:38.160Z,19.23
2018-05-24T03:36:07.061Z,19.22
2018-05-24T03:38:35.664Z,19.24
2018-05-24T03:41:04.296Z,19.21
2018-05-24T03:43:32.976Z,19.22
2018-05-24T03:46:05.170Z,19.23
2018-05-24T03:48:33.716Z,19.24
2018-05-24T03:51:05.157Z,19.24
2018-05-24T03:53:33.721Z,19.25
2018-05-24T03:56:04.567Z,19.28
2018-05-24T04:03:52.268Z,19.30
2018-05-24T04:06:20.905Z,19.26
2018-05-24T04:08:49.524Z,19.27
2018-05-24T04:11:22.192Z,19.30
2018-05-24T04:13:54.344Z,19.29
2018-05-24T04:16:24.091Z,19.27
2018-05-24T04:18:52.801Z,19.27
2018-05-24T04:21:21.842Z,19.29
2018-05-24T04:26:24.437Z,19.30
2018-05-24T04:28:53.299Z,19.26
2018-05-24T04:31:21.807Z,19.21
2018-05-24T04:33:50.569Z,19.20
2018-05-24T04:36:19.775Z,19.19
2018-05-24T04:38:48.340Z,19.22
2018-05-24T04:54:09.674Z,19.51
2018-05-24T04:56:38.547Z,19.45
2018-05-24T04:59:07.068Z,19.41
2018-05-24T05:01:35.710Z,19.40
2018-05-24T05:04:06.403Z,19.36
2018-05-24T05:06:37.602Z,19.31
2018-05-24T05:09:07.259Z,19.31
2018-05-24T05:11:35.944Z,19.29
2018-05-24T05:14:05.937Z,19.29
2018-05-24T05:16:34.521Z,19.29
2018-05-24T05:19:03.601Z,19.29
2018-05-24T05:21:32.547Z,19.29
2018-05-24T05:24:01.599Z,19.29
2018-05-24T05:26:30.275Z,19.29
2018-05-24T05:28:59.500Z,19.30
2018-05-24T05:31:28.130Z,19.32
2018-05-24T05:33:59.723Z,19.31
2018-05-24T05:36:29.099Z,19.30
2018-05-24T05:39:00.643Z,19.30
2018-05-24T05:41:29.363Z,19.30
2018-05-24T05:44:04.475Z,19.30
2018-05-24T05:46:33.081Z,19.28
2018-05-24T05:49:05.244Z,19.22
2018-05-24T05:51:34.234Z,19.21
2018-05-24T05:54:03.998Z,19.21
2018-05-24T05:56:32.596Z,19.15
2018-05-24T05:59:01.688Z,19.11
2018-05-24T06:01:30.413Z,19.05
2018-05-24T06:03:58.887Z,19.08
2018-05-24T06:06:27.980Z,19.08
2018-05-24T06:08:56.523Z,19.10
2018-05-24T06:11:25.080Z,19.10
2018-05-24T06:13:54.010Z,19.12
2018-05-24T06:16:28.294Z,19.11
2018-05-24T06:18:56.986Z,19.07
2018-05-24T06:21:29.834Z,19.14
2018-05-24T06:23:58.600Z,19.20
2018-05-24T06:26:27.216Z,19.23
2018-05-24T06:28:56.998Z,19.22
2018-05-24T06:31:25.575Z,19.25
2018-05-24T06:33:54.119Z,19.30
2018-05-24T06:36:22.989Z,19.35
2018-05-24T06:38:51.628Z,19.42
2018-05-24T06:41:20.517Z,19.46
2018-05-24T06:43:50.087Z,19.50
2018-05-24T06:46:18.674Z,19.47
2018-05-24T06:48:47.381Z,19.57
2018-05-24T06:51:16.247Z,19.65
2018-05-24T06:53:45.083Z,19.74
2018-05-24T06:56:13.652Z,19.81
2018-05-24T06:58:42.705Z,19.78
2018-05-24T07:01:11.321Z,19.82
2018-05-24T07:03:39.844Z,19.81
2018-05-24T07:06:20.131Z,19.83
2018-05-24T07:08:48.693Z,19.87
2018-05-24T07:11:23.471Z,20.00
2018-05-24T07:13:52.186Z,20.16
2018-05-24T07:16:20.778Z,20.25
2018-05-24T07:18:49.693Z,20.39
2018-05-24T07:21:18.382Z,20.31
2018-05-24T07:23:47.149Z,20.32
2018-05-24T07:26:16.074Z,20.45
2018-05-24T07:28:44.750Z,20.47
2018-05-24T07:31:13.716Z,20.50
2018-05-24T07:33:42.756Z,20.49
2018-05-24T07:36:11.716Z,20.55
2018-05-24T07:38:40.272Z,20.63
2018-05-24T07:41:10.687Z,20.63
2018-05-24T07:43:39.271Z,20.65
2018-05-24T07:46:16.452Z,20.69
2018-05-24T07:48:45.487Z,20.77
2018-05-24T07:51:14.111Z,20.81
2018-05-24T07:56:16.628Z,20.95
2018-05-24T07:58:45.427Z,20.93
2018-05-24T08:01:16.073Z,20.94
2018-05-24T08:03:44.987Z,21.06
2018-05-24T08:06:14.783Z,21.11
2018-05-24T08:08:43.420Z,21.23
2018-05-24T08:11:21.928Z,21.16
2018-05-24T08:13:50.480Z,21.07
2018-05-24T08:16:19.073Z,21.06
2018-05-24T08:18:47.916Z,21.18
2018-05-24T08:21:16.559Z,21.30
2018-05-24T08:23:45.481Z,21.46
2018-05-24T08:28:48.298Z,21.65
2018-05-24T08:31:17.248Z,21.64
2018-05-24T08:33:45.973Z,21.56
2018-05-24T08:36:14.793Z,21.64
2018-05-24T08:38:43.344Z,21.68
2018-05-24T08:41:11.969Z,21.76
2018-05-24T08:43:40.758Z,21.90
2018-05-24T08:46:09.274Z,21.80
2018-05-24T08:48:38.127Z,21.88
2018-05-24T08:51:12.121Z,22.06
2018-05-24T08:53:41.195Z,22.19
2018-05-24T08:56:09.855Z,22.23
2018-05-24T08:58:38.642Z,22.30
2018-05-24T09:01:10.562Z,22.30
2018-05-24T09:03:39.105Z,22.36
2018-05-24T09:20:44.121Z,22.77
2018-05-24T09:23:14.273Z,22.91
2018-05-24T09:25:42.823Z,23.04
2018-05-24T09:28:11.362Z,23.05
2018-05-24T09:30:40.536Z,23.14
2018-05-24T09:33:09.500Z,23.28
2018-05-24T09:35:38.032Z,23.43
2018-05-24T09:38:06.897Z,23.64
2018-05-24T09:40:35.464Z,23.81
2018-05-24T09:43:10.871Z,23.84
2018-05-24T09:45:39.689Z,23.96
2018-05-24T09:48:08.367Z,24.05
2018-05-24T09:50:40.151Z,24.16
2018-05-24T09:53:08.740Z,24.32
2018-05-24T09:55:37.601Z,24.30
2018-05-24T09:58:06.658Z,24.46
2018-05-24T10:00:40.208Z,24.47
2018-05-24T10:03:11.556Z,24.69
2018-05-24T10:05:41.981Z,24.85
2018-05-24T10:08:10.872Z,24.81
2018-05-24T10:10:50.614Z,24.97
2018-05-24T10:13:19.595Z,25.29
2018-05-24T10:15:50.598Z,25.43
2018-05-24T10:18:19.083Z,25.57
2018-05-24T10:23:27.594Z,25.68
2018-05-24T10:25:57.502Z,25.69
2018-05-24T10:28:26.081Z,25.45
2018-05-24T10:30:55.953Z,25.58
2018-05-24T10:33:24.659Z,25.59
2018-05-24T10:35:55.016Z,25.13
2018-05-24T10:38:24.207Z,25.07
2018-05-24T10:40:52.817Z,25.30
2018-05-24T10:43:21.573Z,25.36
2018-05-24T10:45:50.463Z,25.79
2018-05-24T10:48:19.256Z,26.14
2018-05-24T10:53:27.803Z,26.26
2018-05-24T10:56:04.094Z,26.47
2018-05-24T10:58:32.843Z,26.52
2018-05-24T11:01:08.134Z,26.72
2018-05-24T11:03:37.476Z,26.47
2018-05-24T11:08:36.713Z,26.99
2018-05-24T11:11:06.203Z,27.07
2018-05-24T11:13:35.576Z,27.15
2018-05-24T11:16:05.857Z,27.34
2018-05-24T11:18:36.488Z,27.38
2018-05-24T11:21:10.161Z,27.51
2018-05-24T11:23:39.235Z,27.56
2018-05-24T11:26:07.837Z,27.65
2018-05-24T11:28:36.419Z,27.94
2018-05-24T11:31:06.053Z,28.04
2018-05-24T11:33:36.722Z,27.90
2018-05-24T11:36:06.636Z,28.30
2018-05-24T11:38:38.164Z,28.35
2018-05-24T11:41:06.764Z,28.48
2018-05-24T11:43:36.746Z,28.63
2018-05-24T11:46:05.851Z,28.76
2018-05-24T11:48:34.459Z,28.78
2018-05-24T11:53:37.247Z,28.92
2018-05-24T11:56:06.490Z,28.64
2018-05-24T11:58:36.218Z,28.80
2018-05-24T12:01:05.916Z,28.25
2018-05-24T12:03:34.459Z,28.54
2018-05-24T12:06:06.504Z,28.87
2018-05-24T12:08:40.149Z,29.28
2018-05-24T12:11:08.683Z,29.35
2018-05-24T12:13:38.314Z,29.65
2018-05-24T12:16:17.759Z,29.58
2018-05-24T12:18:46.848Z,29.86
2018-05-24T12:21:22.567Z,29.94
2018-05-24T12:23:51.619Z,30.24
2018-05-24T12:26:22.641Z,30.04
2018-05-24T12:28:51.352Z,30.02
2018-05-24T12:33:55.501Z,30.51
2018-05-24T12:36:24.489Z,30.24
2018-05-24T12:39:00.128Z,30.72
2018-05-24T12:41:28.664Z,30.86
2018-05-24T12:43:58.148Z,31.22
2018-05-24T12:46:26.778Z,31.54
2018-05-24T12:48:55.608Z,31.67
2018-05-24T12:51:24.348Z,31.09
2018-05-24T12:53:57.853Z,30.81
2018-05-24T12:56:26.618Z,30.40
2018-05-24T12:58:55.742Z,29.79
2018-05-24T13:01:24.376Z,29.96
2018-05-24T13:03:53.960Z,30.34
2018-05-24T13:06:26.475Z,30.89
2018-05-24T13:08:55.080Z,31.23
2018-05-24T13:11:24.119Z,31.09
2018-05-24T13:13:58.945Z,30.87
2018-05-24T13:16:27.485Z,30.89
2018-05-24T13:18:57.936Z,30.98
2018-05-24T13:21:26.605Z,31.69
2018-05-24T13:23:56.316Z,32.55
2018-05-24T13:26:25.428Z,33.09
2018-05-24T13:29:00.209Z,33.60
2018-05-24T13:31:29.173Z,34.28
2018-05-24T13:33:59.398Z,34.99
2018-05-24T13:36:28.154Z,35.53
2018-05-24T13:38:57.812Z,36.45
2018-05-24T13:41:26.781Z,37.09
2018-05-24T13:44:01.095Z,37.56
2018-05-24T13:46:29.853Z,37.63
2018-05-24T13:49:06.702Z,36.95
2018-05-24T13:51:35.593Z,36.78
2018-05-24T13:54:04.961Z,36.24
2018-05-24T13:56:34.971Z,36.33
2018-05-24T13:59:06.531Z,36.29
2018-05-24T14:01:35.142Z,35.87
2018-05-24T14:04:06.297Z,35.52
2018-05-24T14:11:42.555Z,33.38
2018-05-24T14:14:11.786Z,32.73
2018-05-24T14:16:40.798Z,32.21
2018-05-24T14:21:44.772Z,32.88
2018-05-24T14:24:13.447Z,32.58
2018-05-24T14:26:41.987Z,32.16
2018-05-24T14:29:10.869Z,31.63
2018-05-24T14:31:39.459Z,31.34
2018-05-24T14:34:08.380Z,30.99
2018-05-24T14:36:40.273Z,30.77
2018-05-24T14:39:08.827Z,30.66
2018-05-24T14:41:37.338Z,30.50
2018-05-24T14:44:06.363Z,30.27
2018-05-24T14:46:38.571Z,29.97
2018-05-24T14:49:07.196Z,29.79
2018-05-24T14:51:40.723Z,29.59
2018-05-24T14:54:09.537Z,29.51
2018-05-24T14:56:39.641Z,29.39
2018-05-24T14:59:08.224Z,29.14
2018-05-24T15:01:37.621Z,28.98
2018-05-24T15:04:06.631Z,28.90
2018-05-24T15:06:35.226Z,28.75
2018-05-24T15:09:05.090Z,28.55
2018-05-24T15:11:33.979Z,28.44
2018-05-24T15:14:04.041Z,28.23
2018-05-24T15:16:32.912Z,28.06
2018-05-24T15:19:12.737Z,27.96
2018-05-24T15:21:41.275Z,27.82
2018-05-24T15:24:09.836Z,27.65
2018-05-24T15:26:38.843Z,27.58
2018-05-24T15:29:07.947Z,27.50
2018-05-24T15:31:36.477Z,27.31
2018-05-24T15:34:09.109Z,27.30
2018-05-24T15:36:37.786Z,27.24
2018-05-24T15:39:12.374Z,27.23
2018-05-24T15:41:40.909Z,27.21
2018-05-24T15:44:09.459Z,27.24
2018-05-24T15:46:38.602Z,27.25
2018-05-24T15:49:07.536Z,27.25
2018-05-24T15:51:50.611Z,27.23
2018-05-24T15:54:19.562Z,27.16
2018-05-24T15:56:48.332Z,27.12
2018-05-24T15:59:16.943Z,27.09
2018-05-24T16:01:45.928Z,27.02
2018-05-24T16:04:14.595Z,27.02
2018-05-24T16:06:43.182Z,26.94
2018-05-24T16:09:17.170Z,26.89
2018-05-24T16:11:45.995Z,26.95
2018-05-24T16:14:14.630Z,26.95
2018-05-24T16:16:43.621Z,27.19
2018-05-24T16:19:12.511Z,27.38
2018-05-24T16:21:44.661Z,27.53
2018-05-24T16:24:13.304Z,27.54
2018-05-24T16:26:41.861Z,27.66
2018-05-24T16:29:10.753Z,27.77
2018-05-24T16:31:39.359Z,27.93
2018-05-24T16:34:07.986Z,28.06
2018-05-24T16:36:36.910Z,27.99
2018-05-24T16:39:06.309Z,28.05
2018-05-24T16:41:34.936Z,28.04
2018-05-24T16:44:06.454Z,27.99
2018-05-24T16:46:34.999Z,27.85
2018-05-24T16:49:05.242Z,27.72
2018-05-24T16:51:34.060Z,27.75
2018-05-24T16:54:06.991Z,27.82
2018-05-24T16:56:35.829Z,27.76
2018-05-24T16:59:05.623Z,27.82
2018-05-24T17:01:34.207Z,27.92
2018-05-24T17:04:06.667Z,27.90
2018-05-24T17:06:35.200Z,27.79
2018-05-24T17:09:06.698Z,27.75
2018-05-24T17:11:41.266Z,27.65
2018-05-24T17:14:10.086Z,27.57
2018-05-24T17:16:41.815Z,27.56
2018-05-24T17:19:10.369Z,27.52
2018-05-24T17:21:38.940Z,27.41
2018-05-24T17:24:07.771Z,27.30
2018-05-24T17:26:40.098Z,27.19
2018-05-24T17:29:08.663Z,27.08
2018-05-24T17:31:37.485Z,26.94
2018-05-24T17:34:06.371Z,26.82
2018-05-24T17:36:34.907Z,26.75
2018-05-24T17:39:07.497Z,26.68
2018-05-24T17:41:36.053Z,26.55
2018-05-24T17:44:05.329Z,26.45
2018-05-24T17:46:34.169Z,26.31
2018-05-24T17:49:07.544Z,26.26
2018-05-24T17:51:36.080Z,26.20
2018-05-24T17:54:05.677Z,26.14
2018-05-24T17:56:34.202Z,26.07
2018-05-24T17:59:05.495Z,26.05
2018-05-24T18:01:34.464Z,26.04
2018-05-24T18:04:09.221Z,26.03
2018-05-24T18:06:37.941Z,26.04
2018-05-24T18:09:06.643Z,26.02
2018-05-24T18:11:35.195Z,25.92
2018-05-24T18:14:06.508Z,25.83
2018-05-24T18:16:35.100Z,25.76
2018-05-24T18:19:04.261Z,25.64
2018-05-24T18:21:33.140Z,25.56
2018-05-24T18:24:04.025Z,25.50
2018-05-24T18:26:32.644Z,25.49
2018-05-24T18:29:01.259Z,25.47
2018-05-24T18:31:29.973Z,25.45
2018-05-24T18:34:05.725Z,25.45
2018-05-24T18:36:34.312Z,25.47
2018-05-24T18:39:04.107Z,25.45
2018-05-24T18:41:32.679Z,25.42
2018-05-24T18:44:02.546Z,25.41
2018-05-24T18:46:31.165Z,25.25
2018-05-24T18:48:59.719Z,25.17
2018-05-24T18:51:28.584Z,25.14
2018-05-24T18:54:04.612Z,25.09
2018-05-24T18:56:33.543Z,25.09
2018-05-24T18:59:02.696Z,25.07
2018-05-24T19:01:31.378Z,25.06
2018-05-24T19:04:03.906Z,25.02
2018-05-24T19:06:33.329Z,25.00
2018-05-24T19:09:03.103Z,24.99
2018-05-24T19:11:31.949Z,24.95
2018-05-24T19:14:00.492Z,24.94
2018-05-24T19:16:29.083Z,24.92
2018-05-24T19:18:57.608Z,24.90
2018-05-24T19:21:31.990Z,24.88
2018-05-24T19:24:01.031Z,24.86
2018-05-24T19:26:29.860Z,24.83
2018-05-24T19:28:58.598Z,24.83
2018-05-24T19:31:27.560Z,24.81
2018-05-24T19:33:59.744Z,24.77
2018-05-24T19:36:28.970Z,24.75
2018-05-24T19:38:57.908Z,24.72
2018-05-24T19:41:26.463Z,24.71
2018-05-24T19:43:55.036Z,24.70
2018-05-24T19:46:23.612Z,24.67
2018-05-24T19:48:52.841Z,24.66
2018-05-24T19:51:21.571Z,24.63
2018-05-24T19:53:50.553Z,24.59
2018-05-24T19:56:19.210Z,24.54
2018-05-24T19:58:54.020Z,24.51
2018-05-24T20:01:22.906Z,24.49
2018-05-24T20:03:58.413Z,24.47
2018-05-24T20:06:27.312Z,24.44
2018-05-24T20:08:56.829Z,24.39
2018-05-24T20:11:25.478Z,24.34
2018-05-24T20:14:01.493Z,24.29
2018-05-24T20:16:30.604Z,24.27
2018-05-24T20:18:59.245Z,24.26
2018-05-24T20:21:28.343Z,24.26
2018-05-24T20:24:01.690Z,24.24
2018-05-24T20:26:31.619Z,24.22
2018-05-24T20:29:00.761Z,24.20
2018-05-24T20:31:31.336Z,24.17
2018-05-24T20:34:00.129Z,24.15
2018-05-24T20:36:29.167Z,24.11
2018-05-24T20:38:57.860Z,24.06
2018-05-24T20:41:26.432Z,24.03
2018-05-24T20:43:54.976Z,24.00
2018-05-24T20:46:28.292Z,23.98
2018-05-24T20:48:57.212Z,23.98
2018-05-24T20:51:31.771Z,23.96
2018-05-24T20:54:00.745Z,23.93
2018-05-24T20:56:29.590Z,23.88
2018-05-24T20:58:58.152Z,23.83
2018-05-24T21:01:26.670Z,23.78
2018-05-24T21:03:55.460Z,23.77
2018-05-24T21:06:24.042Z,23.74
2018-05-24T21:08:52.664Z,23.72
2018-05-24T21:11:21.207Z,23.69
2018-05-24T21:13:54.114Z,23.69
2018-05-24T21:16:22.647Z,23.69
2018-05-24T21:18:52.180Z,23.66
2018-05-24T21:21:20.778Z,23.62
2018-05-24T21:23:50.127Z,23.61
2018-05-24T21:26:19.059Z,23.60
2018-05-24T21:28:48.335Z,23.56
2018-05-24T21:31:17.285Z,23.54
2018-05-24T21:33:45.933Z,23.53
2018-05-24T21:36:15.288Z,23.54
2018-05-24T21:38:44.185Z,23.52
2018-05-24T21:41:18.543Z,23.53
2018-05-24T21:43:48.537Z,23.53
2018-05-24T21:46:17.117Z,23.52
2018-05-24T21:48:45.787Z,23.50
2018-05-24T21:51:14.659Z,23.50
2018-05-24T21:53:43.243Z,23.46
2018-05-24T21:56:11.877Z,23.42
2018-05-24T21:58:55.683Z,23.43
2018-05-24T22:01:24.274Z,23.43
2018-05-24T22:03:53.139Z,23.41
2018-05-24T22:06:21.707Z,23.40
2018-05-24T22:08:53.721Z,23.38
2018-05-24T22:11:22.679Z,23.36
2018-05-24T22:13:51.553Z,23.35
2018-05-24T22:16:20.193Z,23.34
2018-05-24T22:18:49.843Z,23.25
2018-05-24T22:21:18.679Z,23.19
2018-05-24T22:23:47.898Z,23.18
2018-05-24T22:26:18.654Z,23.14
2018-05-24T22:28:47.578Z,23.09
2018-05-24T22:31:16.215Z,23.05
2018-05-24T22:33:46.208Z,23.05
2018-05-24T22:36:14.990Z,23.04
2018-05-24T22:38:43.656Z,23.02
2018-05-24T22:41:12.768Z,22.98
2018-05-24T22:43:41.310Z,22.95
2018-05-24T22:48:34.847Z,22.91
2018-05-24T22:51:05.309Z,22.82
2018-05-24T22:53:33.915Z,22.73
2018-05-24T22:56:09.599Z,22.68
2018-05-24T22:58:38.163Z,22.63
2018-05-24T23:01:06.773Z,22.60
2018-05-24T23:03:36.478Z,22.53
2018-05-24T23:06:06.948Z,22.47
2018-05-24T23:08:35.798Z,22.45
2018-05-24T23:11:05.022Z,22.49
2018-05-24T23:13:33.606Z,22.47
2018-05-24T23:16:04.088Z,22.48
2018-05-24T23:18:32.830Z,22.47
2018-05-24T23:21:04.999Z,22.48
2018-05-24T23:23:34.229Z,22.45
2018-05-24T23:26:04.919Z,22.45
2018-05-24T23:28:33.681Z,22.41
2018-05-24T23:31:04.983Z,22.40
2018-05-24T23:33:33.572Z,22.36
2018-05-24T23:36:08.632Z,22.34
2018-05-24T23:38:37.549Z,22.28
2018-05-24T23:41:06.110Z,22.27
2018-05-24T23:43:34.699Z,22.26
2018-05-24T23:46:07.650Z,22.22
2018-05-24T23:48:36.187Z,22.23
2018-05-24T23:51:05.382Z,22.22
2018-05-24T23:53:40.496Z,22.21
2018-05-24T23:56:11.709Z,22.20
2018-05-24T23:58:40.741Z,22.17
